createdAt,value
2022-10-28T00:00:32.323Z,8.60
2022-10-28T00:03:18.796Z,8.93
2022-10-28T00:06:10.223Z,9.07
2022-10-28T00:08:56.255Z,8.55
2022-10-28T00:11:42.028Z,9.07
2022-10-28T00:14:27.516Z,7.57
2022-10-28T00:17:12.885Z,7.78
2022-10-28T00:19:58.027Z,8.45
2022-10-28T00:22:43.657Z,8.52
2022-10-28T00:25:29.212Z,8.68
2022-10-28T00:28:14.607Z,7.68
2022-10-28T00:31:08.249Z,8.57
2022-10-28T00:33:54.459Z,8.85
2022-10-28T00:36:42.365Z,9.02
2022-10-28T00:39:28.143Z,8.88
2022-10-28T00:42:17.913Z,9.07
2022-10-28T00:45:05.275Z,8.68
2022-10-28T00:47:56.628Z,8.50
2022-10-28T00:50:47.287Z,9.90
2022-10-28T00:53:33.493Z,10.00
2022-10-28T00:56:20.008Z,9.57
2022-10-28T00:59:11.495Z,8.77
2022-10-28T01:01:57.432Z,9.68
2022-10-28T01:04:44.146Z,10.10
2022-10-28T01:07:30.394Z,9.48
2022-10-28T01:10:15.851Z,9.23
2022-10-28T01:13:08.768Z,8.60
2022-10-28T01:16:02.144Z,8.48
2022-10-28T01:18:53.863Z,8.50
2022-10-28T01:22:04.308Z,8.00
2022-10-28T01:25:25.521Z,7.40
2022-10-28T01:28:42.244Z,6.30
2022-10-28T01:31:35.164Z,6.32
2022-10-28T01:34:46.691Z,5.93
2022-10-28T01:37:44.891Z,5.53
2022-10-28T01:40:56.908Z,5.93
2022-10-28T01:43:48.430Z,6.50
2022-10-28T01:46:45.454Z,6.03
2022-10-28T01:49:39.608Z,6.18
2022-10-28T01:52:28.899Z,7.57
2022-10-28T01:55:23.468Z,6.38
2022-10-28T01:58:12.223Z,6.03
2022-10-28T02:01:00.841Z,6.75
2022-10-28T02:03:47.646Z,6.03
2022-10-28T02:06:34.881Z,7.60
2022-10-28T02:09:39.087Z,6.53
2022-10-28T02:12:33.734Z,5.88
2022-10-28T02:15:48.177Z,5.53
2022-10-28T02:18:56.591Z,5.53
2022-10-28T02:21:51.010Z,5.63
2022-10-28T02:25:33.433Z,4.97
2022-10-28T02:28:29.865Z,4.53
2022-10-28T02:31:29.510Z,4.68
2022-10-28T02:34:20.338Z,5.40
2022-10-28T02:37:14.691Z,5.85
2022-10-28T02:40:05.591Z,5.72
2022-10-28T02:42:57.312Z,4.78
2022-10-28T02:45:46.734Z,5.30
2022-10-28T02:48:40.129Z,5.35
2022-10-28T02:51:31.983Z,5.03
2022-10-28T02:54:59.202Z,5.07
2022-10-28T02:57:49.220Z,4.47
2022-10-28T03:00:34.928Z,4.57
2022-10-28T03:03:20.197Z,4.38
2022-10-28T03:06:05.783Z,5.22
2022-10-28T03:08:51.553Z,4.78
2022-10-28T03:11:36.822Z,4.40
2022-10-28T03:14:22.255Z,5.07
2022-10-28T03:17:07.852Z,5.03
2022-10-28T03:19:53.455Z,4.65
2022-10-28T03:22:38.853Z,4.60
2022-10-28T03:25:24.283Z,5.18
2022-10-28T03:28:09.814Z,4.75
2022-10-28T03:30:55.116Z,4.60
2022-10-28T03:33:40.478Z,5.03
2022-10-28T03:36:25.858Z,5.43
2022-10-28T03:39:11.340Z,5.25
2022-10-28T03:41:56.844Z,5.95
2022-10-28T03:44:42.108Z,5.82
2022-10-28T03:47:27.571Z,5.00
2022-10-28T03:50:13.059Z,4.97
2022-10-28T03:52:58.698Z,6.43
2022-10-28T03:55:44.058Z,5.13
2022-10-28T03:58:29.864Z,5.15
2022-10-28T04:01:15.647Z,5.80
2022-10-28T04:04:01.314Z,5.68
2022-10-28T04:06:46.863Z,5.00
2022-10-28T04:09:32.453Z,5.70
2022-10-28T04:12:18.693Z,5.55
2022-10-28T04:15:04.564Z,5.70
2022-10-28T04:17:50.400Z,5.53
2022-10-28T04:20:36.373Z,6.00
2022-10-28T04:23:21.900Z,5.78
2022-10-28T04:26:07.196Z,5.53
2022-10-28T04:28:52.682Z,5.55
2022-10-28T04:31:38.002Z,4.88
2022-10-28T04:34:23.652Z,5.68
2022-10-28T04:37:09.937Z,5.15
2022-10-28T04:39:55.537Z,5.25
2022-10-28T04:42:41.063Z,5.47
2022-10-28T04:45:26.306Z,6.00
2022-10-28T04:48:11.743Z,6.68
2022-10-28T04:50:57.531Z,6.00
2022-10-28T04:53:43.386Z,6.00
2022-10-28T04:56:31.097Z,5.40
2022-10-28T04:59:16.625Z,5.82
2022-10-28T05:02:02.488Z,6.35
2022-10-28T05:04:48.321Z,5.85
2022-10-28T05:07:34.616Z,5.72
2022-10-28T05:10:20.219Z,5.05
2022-10-28T05:13:06.878Z,5.88
2022-10-28T05:15:54.304Z,5.35
2022-10-28T05:18:40.040Z,5.63
2022-10-28T05:21:25.410Z,5.28
2022-10-28T05:24:11.072Z,5.53
2022-10-28T05:26:56.549Z,5.28
2022-10-28T05:29:41.839Z,5.97
2022-10-28T05:32:27.481Z,8.50
2022-10-28T05:35:12.883Z,9.60
2022-10-28T05:37:58.460Z,8.15
2022-10-28T05:40:43.858Z,7.28
2022-10-28T05:43:29.640Z,7.38
2022-10-28T05:46:14.949Z,6.65
2022-10-28T05:49:00.353Z,6.22
2022-10-28T05:51:46.994Z,5.43
2022-10-28T05:54:33.685Z,6.25
2022-10-28T05:57:18.969Z,7.22
2022-10-28T06:00:05.007Z,7.22
2022-10-28T06:03:09.428Z,7.13
2022-10-28T06:05:54.914Z,8.23
2022-10-28T06:08:40.325Z,9.25
2022-10-28T06:11:24.135Z,8.90
2022-10-28T06:14:09.753Z,9.10
2022-10-28T06:16:55.213Z,11.05
2022-10-28T06:19:40.514Z,11.13
2022-10-28T06:22:25.886Z,8.40
2022-10-28T06:25:11.403Z,7.60
2022-10-28T06:28:00.985Z,8.18
2022-10-28T06:30:46.517Z,6.47
2022-10-28T06:33:32.326Z,6.47
2022-10-28T06:36:17.690Z,6.00
2022-10-28T06:39:04.177Z,5.80
2022-10-28T06:41:49.937Z,5.28
2022-10-28T06:44:35.439Z,5.43
2022-10-28T06:47:22.323Z,6.93
2022-10-28T06:50:08.039Z,6.63
2022-10-28T06:52:56.680Z,6.03
2022-10-28T06:55:42.675Z,7.03
2022-10-28T06:58:28.081Z,7.40
2022-10-28T07:01:13.484Z,6.85
2022-10-28T07:03:59.140Z,6.97
2022-10-28T07:06:46.420Z,7.38
2022-10-28T07:09:36.525Z,6.68
2022-10-28T07:12:22.352Z,8.15
2022-10-28T07:15:08.491Z,7.75
2022-10-28T07:17:55.342Z,8.38
2022-10-28T07:20:40.827Z,8.77
2022-10-28T07:23:26.221Z,8.25
2022-10-28T07:26:12.858Z,9.23
2022-10-28T07:28:58.206Z,9.18
2022-10-28T07:31:44.590Z,9.27
2022-10-28T07:34:30.794Z,9.57
2022-10-28T07:37:16.444Z,9.02
2022-10-28T07:40:02.616Z,8.85
2022-10-28T07:42:48.076Z,7.93
2022-10-28T07:45:35.690Z,7.95
2022-10-28T07:48:21.157Z,8.95
2022-10-28T07:51:08.462Z,8.25
2022-10-28T07:53:57.023Z,9.15
2022-10-28T07:56:42.763Z,9.02
2022-10-28T07:59:28.115Z,9.40
2022-10-28T08:02:19.439Z,11.90
2022-10-28T08:05:05.531Z,9.95
2022-10-28T08:07:50.864Z,8.75
2022-10-28T08:10:36.722Z,8.95
2022-10-28T08:13:22.157Z,9.73
2022-10-28T08:16:08.275Z,9.48
2022-10-28T08:18:53.830Z,9.60
2022-10-28T08:21:39.374Z,8.93
2022-10-28T08:24:24.963Z,9.18
2022-10-28T08:27:10.341Z,8.65
2022-10-28T08:29:55.639Z,8.00
2022-10-28T08:32:41.128Z,8.57
2022-10-28T08:35:26.516Z,8.30
2022-10-28T08:38:11.940Z,8.52
2022-10-28T08:41:19.100Z,7.65
2022-10-28T08:44:13.654Z,7.82
2022-10-28T08:47:16.358Z,8.32
2022-10-28T08:50:12.146Z,7.68
2022-10-28T08:53:14.638Z,8.40
2022-10-28T08:56:14.344Z,8.75
2022-10-28T08:59:03.887Z,8.05
2022-10-28T09:01:57.356Z,7.75
2022-10-28T09:04:45.036Z,11.27
2022-10-28T09:07:34.043Z,9.90
2022-10-28T09:11:06.172Z,10.95
2022-10-28T09:14:13.037Z,9.77
2022-10-28T09:17:20.187Z,8.07
2022-10-28T09:20:18.311Z,8.27
2022-10-28T09:23:24.137Z,7.78
2022-10-28T09:26:15.909Z,8.15
2022-10-28T09:29:11.905Z,7.90
2022-10-28T09:32:09.517Z,8.02
2022-10-28T09:35:06.401Z,7.78
2022-10-28T09:37:59.865Z,9.35
2022-10-28T09:40:51.256Z,7.70
2022-10-28T09:43:44.155Z,7.43
2022-10-28T09:46:34.584Z,6.95
2022-10-28T09:49:27.919Z,8.10
2022-10-28T09:52:22.714Z,7.93
2022-10-28T09:55:19.452Z,8.60
2022-10-28T09:58:05.498Z,7.35
2022-10-28T10:00:51.079Z,7.00
2022-10-28T10:03:36.383Z,7.18
2022-10-28T10:06:32.263Z,6.90
2022-10-28T10:09:25.480Z,6.63
2022-10-28T10:12:13.400Z,6.78
2022-10-28T10:14:59.962Z,6.85
2022-10-28T10:17:47.663Z,6.45
2022-10-28T10:20:48.457Z,7.10
2022-10-28T10:23:36.896Z,6.22
2022-10-28T10:26:22.961Z,6.07
2022-10-28T10:29:13.170Z,5.95
2022-10-28T10:32:13.491Z,6.00
2022-10-28T10:35:37.730Z,5.30
2022-10-28T10:38:23.727Z,5.22
2022-10-28T10:41:09.103Z,6.13
2022-10-28T10:43:54.349Z,6.18
2022-10-28T10:46:39.751Z,4.90
2022-10-28T10:49:26.008Z,5.07
2022-10-28T10:52:21.130Z,4.65
2022-10-28T10:55:17.705Z,4.72
2022-10-28T10:58:05.407Z,4.85
2022-10-28T11:00:53.587Z,4.50
2022-10-28T11:03:47.427Z,5.05
2022-10-28T11:06:38.352Z,4.10
2022-10-28T11:09:27.051Z,4.40
2022-10-28T11:12:28.362Z,4.88
2022-10-28T11:15:18.305Z,4.30
2022-10-28T11:18:22.281Z,3.90
2022-10-28T11:21:31.584Z,4.28
2022-10-28T11:24:35.732Z,3.70
2022-10-28T11:27:48.593Z,3.70
2022-10-28T11:30:51.502Z,3.80
2022-10-28T11:34:02.482Z,3.78
2022-10-28T11:37:10.209Z,3.83
2022-10-28T11:40:05.289Z,3.17
2022-10-28T11:42:59.885Z,3.30
2022-10-28T11:45:51.768Z,3.78
2022-10-28T11:49:17.867Z,3.08
2022-10-28T11:52:03.959Z,2.97
2022-10-28T11:54:57.396Z,2.78
2022-10-28T11:58:33.820Z,2.60
2022-10-28T12:01:40.396Z,2.85
2022-10-28T12:04:58.754Z,3.25
2022-10-28T12:07:50.165Z,2.20
2022-10-28T12:11:03.989Z,2.80
2022-10-28T12:14:13.626Z,2.22
2022-10-28T12:17:40.606Z,1.80
2022-10-28T12:20:56.679Z,2.20
2022-10-28T12:23:43.897Z,1.90
2022-10-28T12:26:38.466Z,1.60
2022-10-28T12:29:35.091Z,1.90
2022-10-28T12:32:31.905Z,1.90
2022-10-28T12:35:36.803Z,2.65
2022-10-28T12:38:26.095Z,2.80
2022-10-28T12:41:17.678Z,2.15
2022-10-28T12:44:10.051Z,2.20
2022-10-28T12:47:21.148Z,1.60
2022-10-28T12:50:19.421Z,1.88
2022-10-28T12:53:05.428Z,2.10
2022-10-28T12:55:53.622Z,1.55
2022-10-28T12:58:58.270Z,1.65
2022-10-28T13:01:48.231Z,1.42
2022-10-28T13:04:33.714Z,1.08
2022-10-28T13:07:45.104Z,1.13
2022-10-28T13:10:43.005Z,1.25
2022-10-28T13:13:46.964Z,1.80
2022-10-28T13:16:35.640Z,1.77
2022-10-28T13:19:43.282Z,1.80
2022-10-28T13:22:46.008Z,1.92
2022-10-28T13:25:50.504Z,3.22
2022-10-28T13:28:44.891Z,2.42
2022-10-28T13:31:44.293Z,2.33
2022-10-28T13:34:35.075Z,2.10
2022-10-28T13:37:23.457Z,2.10
2022-10-28T13:40:23.380Z,2.63
2022-10-28T13:43:49.927Z,2.75
2022-10-28T13:47:13.166Z,3.10
2022-10-28T13:50:08.497Z,3.65
2022-10-28T13:53:28.635Z,4.60
2022-10-28T13:56:28.463Z,5.25
2022-10-28T13:59:30.941Z,4.72
2022-10-28T14:02:35.029Z,4.97
2022-10-28T14:05:44.577Z,5.18
2022-10-28T14:08:38.666Z,3.90
2022-10-28T14:11:28.651Z,2.97
2022-10-28T14:14:17.235Z,2.95
2022-10-28T14:17:03.837Z,3.08
2022-10-28T14:19:53.992Z,3.33
2022-10-28T14:22:39.822Z,3.17
2022-10-28T14:25:40.384Z,3.10
2022-10-28T14:28:29.078Z,4.93
2022-10-28T14:31:20.880Z,5.18
2022-10-28T14:34:12.572Z,5.95
2022-10-28T14:37:32.500Z,4.97
2022-10-28T14:40:36.128Z,5.38
2022-10-28T14:44:12.232Z,10.82
2022-10-28T14:47:16.007Z,9.95
2022-10-28T14:50:03.447Z,6.72
2022-10-28T14:52:50.958Z,8.13
2022-10-28T14:55:36.785Z,13.85
2022-10-28T14:58:24.670Z,26.65
2022-10-28T15:01:16.784Z,16.73
2022-10-28T15:04:04.618Z,14.35
2022-10-28T15:06:52.042Z,16.27
2022-10-28T15:09:39.894Z,10.95
2022-10-28T15:12:26.951Z,11.75
2022-10-28T15:15:21.679Z,12.15
2022-10-28T15:18:21.975Z,9.20
2022-10-28T15:21:20.763Z,7.57
2022-10-28T15:24:13.639Z,8.73
2022-10-28T15:26:59.933Z,11.15
2022-10-28T15:29:45.814Z,10.52
2022-10-28T15:32:34.779Z,13.05
2022-10-28T15:35:35.633Z,14.23
2022-10-28T15:38:21.199Z,18.37
2022-10-28T15:41:29.947Z,19.58
2022-10-28T15:44:51.117Z,17.75
2022-10-28T15:47:37.491Z,15.30
2022-10-28T15:50:30.065Z,15.50
2022-10-28T15:53:33.221Z,14.20
2022-10-28T15:56:21.631Z,14.93
2022-10-28T15:59:24.982Z,15.93
2022-10-28T16:02:49.783Z,15.02
2022-10-28T16:05:35.577Z,16.92
2022-10-28T16:08:21.276Z,17.50
2022-10-28T16:11:16.129Z,17.52
2022-10-28T16:14:07.481Z,17.48
2022-10-28T16:16:52.767Z,17.20
2022-10-28T16:19:42.224Z,18.13
2022-10-28T16:22:30.692Z,21.45
2022-10-28T16:25:21.250Z,23.73
2022-10-28T16:28:17.115Z,21.17
2022-10-28T16:31:03.311Z,18.88
2022-10-28T16:33:49.028Z,18.23
2022-10-28T16:36:34.277Z,18.80
2022-10-28T16:39:19.795Z,19.70
2022-10-28T16:42:05.289Z,21.45
2022-10-28T16:44:58.218Z,21.85
2022-10-28T16:47:46.281Z,21.17
2022-10-28T16:50:31.666Z,22.02
2022-10-28T16:53:18.338Z,22.13
2022-10-28T16:56:04.134Z,21.35
2022-10-28T16:58:50.226Z,21.27
2022-10-28T17:01:35.876Z,19.55
2022-10-28T17:04:37.224Z,20.80
2022-10-28T17:07:32.467Z,17.05
2022-10-28T17:10:19.957Z,14.50
2022-10-28T17:13:08.081Z,17.63
2022-10-28T17:15:54.052Z,14.45
2022-10-28T17:18:39.647Z,14.90
2022-10-28T17:21:25.985Z,23.13
2022-10-28T17:24:12.533Z,24.20
2022-10-28T17:26:58.294Z,29.33
2022-10-28T17:29:43.730Z,27.85
2022-10-28T17:32:29.093Z,26.80
2022-10-28T17:35:14.985Z,24.60
2022-10-28T17:38:00.897Z,30.48
2022-10-28T17:40:55.082Z,21.55
2022-10-28T17:43:40.805Z,16.33
2022-10-28T17:46:26.345Z,15.57
2022-10-28T17:49:11.940Z,14.35
2022-10-28T17:51:57.351Z,16.35
2022-10-28T17:54:42.833Z,17.02
2022-10-28T17:57:28.158Z,17.20
2022-10-28T18:00:14.494Z,17.38
2022-10-28T18:03:00.461Z,20.50
2022-10-28T18:05:45.978Z,19.05
2022-10-28T18:08:37.245Z,19.52
2022-10-28T18:11:23.062Z,19.42
2022-10-28T18:14:08.360Z,21.17
2022-10-28T18:16:53.944Z,19.40
2022-10-28T18:19:39.286Z,19.15
2022-10-28T18:25:11.853Z,19.65
2022-10-28T18:27:57.449Z,20.00
2022-10-28T18:30:42.992Z,21.65
2022-10-28T18:33:32.407Z,22.90
2022-10-28T18:36:21.325Z,21.92
2022-10-28T18:39:07.898Z,23.70
2022-10-28T18:41:53.500Z,27.60
2022-10-28T18:44:38.950Z,26.60
2022-10-28T18:47:26.254Z,38.17
2022-10-28T18:50:12.247Z,30.63
2022-10-28T18:52:57.931Z,28.77
2022-10-28T18:55:43.838Z,32.60
2022-10-28T18:58:29.505Z,32.50
2022-10-28T19:01:17.485Z,31.88
2022-10-28T19:04:05.241Z,30.30
2022-10-28T19:06:50.931Z,29.20
2022-10-28T19:09:36.283Z,28.40
2022-10-28T19:12:21.878Z,27.17
2022-10-28T19:15:07.978Z,29.27
2022-10-28T19:17:54.036Z,34.10
2022-10-28T19:20:39.675Z,37.03
2022-10-28T19:23:25.043Z,39.53
2022-10-28T19:26:11.760Z,37.45
2022-10-28T19:28:57.555Z,36.42
2022-10-28T19:31:43.566Z,33.10
2022-10-28T19:34:29.443Z,32.42
2022-10-28T19:37:15.100Z,33.08
2022-10-28T19:40:00.525Z,31.13
2022-10-28T19:42:46.892Z,30.95
2022-10-28T19:45:32.252Z,31.15
2022-10-28T19:48:17.914Z,30.85
2022-10-28T19:51:04.215Z,33.97
2022-10-28T19:53:53.840Z,36.70
2022-10-28T19:56:39.523Z,42.92
2022-10-28T19:59:25.364Z,49.33
2022-10-28T20:02:11.693Z,50.58
2022-10-28T20:04:57.483Z,41.38
2022-10-28T20:07:44.648Z,32.70
2022-10-28T20:10:29.946Z,30.25
2022-10-28T20:13:15.348Z,34.22
2022-10-28T20:16:03.308Z,34.50
2022-10-28T20:18:48.949Z,31.15
2022-10-28T20:21:35.279Z,30.90
2022-10-28T20:24:20.983Z,25.60
2022-10-28T20:27:07.378Z,25.25
2022-10-28T20:29:53.095Z,25.40
2022-10-28T20:32:38.458Z,24.17
2022-10-28T20:35:23.617Z,22.70
2022-10-28T20:38:08.994Z,21.88
2022-10-28T20:40:57.165Z,22.27
2022-10-28T20:43:42.527Z,22.23
2022-10-28T20:46:28.508Z,20.52
2022-10-28T20:49:14.994Z,19.02
2022-10-28T20:52:01.049Z,19.58
2022-10-28T20:54:46.562Z,19.23
2022-10-28T20:57:32.130Z,19.58
2022-10-28T21:00:18.003Z,21.05
2022-10-28T21:03:04.023Z,18.83
2022-10-28T21:05:49.572Z,19.30
2022-10-28T21:08:35.942Z,20.30
2022-10-28T21:11:23.452Z,19.70
2022-10-28T21:14:09.563Z,21.08
2022-10-28T21:16:55.182Z,22.10
2022-10-28T21:19:43.254Z,19.05
2022-10-28T21:22:28.388Z,20.00
2022-10-28T21:25:14.255Z,21.52
2022-10-28T21:28:00.544Z,22.10
2022-10-28T21:30:45.896Z,22.27
2022-10-28T21:33:32.588Z,22.02
2022-10-28T21:36:20.356Z,21.08
2022-10-28T21:39:06.127Z,21.70
2022-10-28T21:41:51.573Z,21.63
2022-10-28T21:44:36.866Z,19.00
2022-10-28T21:47:22.540Z,18.83
2022-10-28T21:50:08.248Z,16.77
2022-10-28T21:55:49.108Z,14.93
2022-10-28T21:58:37.223Z,15.05
2022-10-28T22:01:24.731Z,17.55
2022-10-28T22:04:10.848Z,23.15
2022-10-28T22:06:56.134Z,21.65
2022-10-28T22:09:41.662Z,21.67
2022-10-28T22:12:26.796Z,20.13
2022-10-28T22:15:12.436Z,20.90
2022-10-28T22:17:57.869Z,19.73
2022-10-28T22:20:43.644Z,19.10
2022-10-28T22:23:29.066Z,20.00
2022-10-28T22:30:58.185Z,21.98
2022-10-28T22:33:44.351Z,23.17
2022-10-28T22:36:30.053Z,23.45
2022-10-28T22:39:15.662Z,22.83
2022-10-28T22:42:02.043Z,23.35
2022-10-28T22:44:47.292Z,21.90
2022-10-28T22:47:32.748Z,20.90
2022-10-28T22:50:18.170Z,20.13
2022-10-28T22:53:03.275Z,19.52
2022-10-28T22:55:48.935Z,19.90
2022-10-28T22:58:35.015Z,19.08
2022-10-28T23:01:21.931Z,18.63
2022-10-28T23:04:11.872Z,17.17
2022-10-28T23:06:57.222Z,18.38
2022-10-28T23:09:42.461Z,18.23
2022-10-28T23:12:27.874Z,17.55
2022-10-28T23:15:13.234Z,18.52
2022-10-28T23:17:58.774Z,16.52
2022-10-28T23:20:44.238Z,13.98
2022-10-28T23:23:29.602Z,12.25
2022-10-28T23:26:18.250Z,13.38
2022-10-28T23:29:03.831Z,14.73
2022-10-28T23:31:49.210Z,14.40
2022-10-28T23:34:34.683Z,15.27
2022-10-28T23:37:19.963Z,16.45
2022-10-28T23:40:05.761Z,16.77
2022-10-28T23:42:51.102Z,16.90
2022-10-28T23:45:36.509Z,17.13
2022-10-28T23:48:22.178Z,16.75
2022-10-28T23:51:08.266Z,14.52
2022-10-28T23:53:53.887Z,13.30
2022-10-28T23:56:39.240Z,12.50
2022-10-28T23:59:24.731Z,13.57
